createdAt,value
2022-10-05T00:02:22.642Z,50.23
2022-10-05T00:04:54.833Z,50.36
2022-10-05T00:07:24.736Z,50.50
2022-10-05T00:09:57.090Z,50.57
2022-10-05T00:12:29.118Z,50.61
2022-10-05T00:15:01.061Z,50.61
2022-10-05T00:17:31.237Z,50.67
2022-10-05T00:20:00.427Z,50.78
2022-10-05T00:22:32.803Z,50.72
2022-10-05T00:25:11.190Z,50.90
2022-10-05T00:27:40.526Z,51.06
2022-10-05T00:30:16.496Z,51.47
2022-10-05T00:32:46.372Z,51.49
2022-10-05T00:35:17.585Z,51.50
2022-10-05T00:37:52.539Z,51.44
2022-10-05T00:40:32.513Z,51.31
2022-10-05T00:43:21.880Z,51.59
2022-10-05T00:45:56.967Z,51.66
2022-10-05T00:48:36.693Z,51.76
2022-10-05T00:51:25.091Z,51.68
2022-10-05T00:54:07.541Z,52.00
2022-10-05T00:57:11.151Z,51.89
2022-10-05T00:59:51.643Z,52.21
2022-10-05T01:02:35.834Z,52.34
2022-10-05T01:05:12.722Z,52.40
2022-10-05T01:07:50.176Z,52.61
2022-10-05T01:10:29.248Z,52.84
2022-10-05T01:13:08.174Z,53.03
2022-10-05T01:15:45.878Z,53.21
2022-10-05T01:18:22.125Z,53.19
2022-10-05T01:21:03.119Z,53.14
2022-10-05T01:23:52.789Z,53.33
2022-10-05T01:26:45.566Z,53.35
2022-10-05T01:29:22.604Z,53.25
2022-10-05T01:31:58.474Z,53.20
2022-10-05T01:34:36.324Z,53.12
2022-10-05T01:37:15.353Z,53.38
2022-10-05T01:39:47.428Z,53.52
2022-10-05T01:42:28.554Z,53.45
2022-10-05T01:45:03.872Z,53.31
2022-10-05T01:47:42.441Z,53.35
2022-10-05T01:50:19.987Z,53.34
2022-10-05T01:53:00.328Z,53.40
2022-10-05T01:55:39.125Z,53.53
2022-10-05T01:58:15.427Z,53.46
2022-10-05T02:01:01.079Z,53.60
2022-10-05T02:03:35.857Z,54.07
2022-10-05T02:06:10.411Z,54.33
2022-10-05T02:08:44.006Z,54.26
2022-10-05T02:11:14.862Z,54.29
2022-10-05T02:13:47.766Z,54.47
2022-10-05T02:16:21.477Z,54.53
2022-10-05T02:18:54.899Z,54.48
2022-10-05T02:21:25.544Z,54.69
2022-10-05T02:23:57.594Z,54.98
2022-10-05T02:26:27.842Z,55.20
2022-10-05T02:29:01.514Z,55.49
2022-10-05T02:31:37.281Z,55.63
2022-10-05T02:34:27.062Z,55.42
2022-10-05T02:37:12.107Z,55.61
2022-10-05T02:39:57.862Z,55.76
2022-10-05T02:42:32.883Z,55.83
2022-10-05T02:45:14.300Z,55.77
2022-10-05T02:47:51.876Z,55.84
2022-10-05T02:50:29.802Z,55.80
2022-10-05T02:53:08.944Z,55.84
2022-10-05T02:55:46.601Z,55.85
2022-10-05T02:58:21.100Z,55.93
2022-10-05T03:00:59.906Z,55.77
2022-10-05T03:03:31.297Z,55.76
2022-10-05T03:06:03.113Z,56.04
2022-10-05T03:08:40.074Z,55.72
2022-10-05T03:11:18.225Z,55.81
2022-10-05T03:13:52.992Z,55.98
2022-10-05T03:16:35.173Z,56.06
2022-10-05T03:19:18.913Z,56.07
2022-10-05T03:21:58.942Z,56.34
2022-10-05T03:24:47.613Z,56.29
2022-10-05T03:27:23.017Z,56.39
2022-10-05T03:30:02.350Z,56.50
2022-10-05T03:32:41.253Z,56.79
2022-10-05T03:35:16.373Z,57.17
2022-10-05T03:37:51.571Z,57.08
2022-10-05T03:40:29.398Z,57.09
2022-10-05T03:43:26.949Z,57.48
2022-10-05T03:46:03.097Z,57.78
2022-10-05T03:48:40.201Z,57.73
2022-10-05T03:51:15.783Z,57.68
2022-10-05T03:53:50.969Z,57.76
2022-10-05T03:56:30.044Z,57.78
2022-10-05T03:59:00.956Z,57.81
2022-10-05T04:01:38.886Z,57.71
2022-10-05T04:04:18.937Z,57.73
2022-10-05T04:06:49.955Z,57.68
2022-10-05T04:09:24.095Z,57.50
2022-10-05T04:11:58.147Z,57.69
2022-10-05T04:14:32.689Z,57.87
2022-10-05T04:17:06.782Z,58.28
2022-10-05T04:19:43.678Z,58.29
2022-10-05T04:22:19.735Z,58.07
2022-10-05T04:24:56.197Z,58.08
2022-10-05T04:27:31.922Z,58.22
2022-10-05T04:30:07.676Z,58.22
2022-10-05T04:32:41.559Z,58.66
2022-10-05T04:35:26.462Z,58.60
2022-10-05T04:38:06.225Z,58.82
2022-10-05T04:40:48.579Z,58.80
2022-10-05T04:43:56.777Z,59.17
2022-10-05T04:51:16.143Z,59.16
2022-10-05T04:54:14.631Z,59.07
2022-10-05T04:57:35.450Z,59.06
2022-10-05T05:00:57.527Z,59.00
2022-10-05T05:04:28.343Z,59.11
2022-10-05T05:07:27.924Z,59.00
2022-10-05T05:10:21.729Z,59.08
2022-10-05T05:13:06.399Z,59.16
2022-10-05T05:15:48.596Z,59.18
2022-10-05T05:18:46.845Z,59.26
2022-10-05T05:21:30.558Z,59.22
2022-10-05T05:24:10.277Z,59.20
2022-10-05T05:27:01.809Z,59.07
2022-10-05T05:29:43.170Z,58.96
2022-10-05T05:32:23.248Z,58.80
2022-10-05T05:35:13.506Z,58.64
2022-10-05T05:37:54.207Z,58.53
2022-10-05T05:40:28.296Z,58.39
2022-10-05T05:43:02.392Z,58.36
2022-10-05T05:45:42.693Z,58.41
2022-10-05T05:48:19.009Z,58.57
2022-10-05T05:50:59.059Z,58.55
2022-10-05T05:53:41.584Z,58.39
2022-10-05T05:56:13.459Z,58.02
2022-10-05T05:58:49.076Z,57.89
2022-10-05T06:01:33.162Z,57.83
2022-10-05T06:04:10.986Z,57.79
2022-10-05T06:06:44.709Z,57.81
2022-10-05T06:09:21.061Z,57.85
2022-10-05T06:11:53.967Z,57.83
2022-10-05T06:14:29.673Z,57.75
2022-10-05T06:17:04.153Z,57.70
2022-10-05T06:19:36.703Z,57.62
2022-10-05T06:22:14.894Z,57.52
2022-10-05T06:24:58.063Z,57.63
2022-10-05T06:27:34.251Z,57.50
2022-10-05T06:30:10.030Z,57.40
2022-10-05T06:32:54.190Z,57.29
2022-10-05T06:35:35.824Z,57.17
2022-10-05T06:38:24.557Z,57.02
2022-10-05T06:41:02.796Z,56.85
2022-10-05T06:43:43.216Z,56.68
2022-10-05T06:46:19.137Z,56.69
2022-10-05T06:49:08.892Z,56.48
2022-10-05T06:51:45.251Z,56.37
2022-10-05T06:54:29.402Z,56.25
2022-10-05T06:57:05.205Z,56.28
2022-10-05T06:59:43.338Z,56.27
2022-10-05T07:02:22.266Z,56.18
2022-10-05T07:05:15.642Z,56.10
2022-10-05T07:07:54.163Z,56.02
2022-10-05T07:10:33.670Z,55.87
2022-10-05T07:13:22.224Z,55.68
2022-10-05T07:15:58.854Z,55.53
2022-10-05T07:18:53.412Z,55.40
2022-10-05T07:21:35.228Z,54.79
2022-10-05T07:24:22.209Z,54.75
2022-10-05T07:26:58.990Z,54.57
2022-10-05T07:29:33.302Z,54.48
2022-10-05T07:32:19.595Z,54.23
2022-10-05T07:35:00.017Z,53.96
2022-10-05T07:37:57.110Z,53.82
2022-10-05T07:40:32.834Z,53.63
2022-10-05T07:43:18.938Z,53.43
2022-10-05T07:45:55.446Z,53.22
2022-10-05T07:48:32.713Z,53.13
2022-10-05T07:51:16.020Z,52.76
2022-10-05T07:53:52.266Z,52.89
2022-10-05T07:56:25.692Z,52.81
2022-10-05T07:59:01.145Z,52.43
2022-10-05T08:01:34.370Z,52.33
2022-10-05T08:04:20.128Z,52.23
2022-10-05T08:06:56.690Z,52.10
2022-10-05T08:09:39.816Z,51.88
2022-10-05T08:12:31.389Z,51.81
2022-10-05T08:15:12.063Z,51.74
2022-10-05T08:17:47.910Z,51.42
2022-10-05T08:20:30.179Z,51.23
2022-10-05T08:23:23.879Z,51.23
2022-10-05T08:26:05.507Z,50.91
2022-10-05T08:28:39.407Z,50.85
2022-10-05T08:31:18.832Z,50.69
2022-10-05T08:33:58.238Z,50.68
2022-10-05T08:36:44.348Z,50.66
2022-10-05T08:39:18.184Z,50.45
2022-10-05T08:42:25.570Z,50.41
2022-10-05T08:45:46.410Z,50.09
2022-10-05T08:48:42.984Z,50.13
2022-10-05T08:51:45.297Z,50.20
2022-10-05T08:54:46.676Z,49.77
2022-10-05T08:57:52.911Z,49.79
2022-10-05T09:00:23.335Z,49.75
2022-10-05T09:03:19.287Z,49.34
2022-10-05T09:06:20.172Z,49.05
2022-10-05T09:09:07.961Z,49.04
2022-10-05T09:11:40.107Z,48.91
2022-10-05T09:14:52.445Z,49.15
2022-10-05T09:17:49.583Z,48.57
2022-10-05T09:20:30.248Z,48.36
2022-10-05T09:23:08.961Z,48.20
2022-10-05T09:25:56.314Z,47.93
2022-10-05T09:28:31.775Z,47.79
2022-10-05T09:31:18.897Z,48.04
2022-10-05T09:34:18.934Z,48.00
2022-10-05T09:37:24.813Z,47.84
2022-10-05T09:40:36.921Z,47.57
2022-10-05T09:43:32.242Z,47.48
2022-10-05T09:46:29.566Z,47.50
2022-10-05T09:49:15.427Z,46.99
2022-10-05T09:52:17.889Z,47.13
2022-10-05T09:55:27.101Z,46.22
2022-10-05T09:58:27.916Z,45.21
2022-10-05T10:01:36.385Z,44.60
2022-10-05T10:04:39.061Z,45.74
2022-10-05T10:07:39.721Z,45.15
2022-10-05T10:10:38.380Z,45.22
2022-10-05T10:13:32.553Z,45.69
2022-10-05T10:16:17.561Z,45.68
2022-10-05T10:19:17.516Z,45.90
2022-10-05T10:22:09.044Z,45.63
2022-10-05T10:24:52.192Z,45.49
2022-10-05T10:27:40.301Z,45.62
2022-10-05T10:30:37.454Z,45.24
2022-10-05T10:33:30.269Z,44.77
2022-10-05T10:36:06.989Z,44.96
2022-10-05T10:38:51.402Z,44.91
2022-10-05T10:42:01.019Z,45.07
2022-10-05T10:45:28.147Z,44.70
2022-10-05T10:48:04.823Z,43.86
2022-10-05T10:51:04.811Z,43.60
2022-10-05T10:54:07.883Z,44.01
2022-10-05T10:56:56.658Z,43.73
2022-10-05T11:00:00.292Z,43.85
2022-10-05T11:02:53.979Z,43.79
2022-10-05T11:05:36.273Z,43.90
2022-10-05T11:08:43.262Z,44.03
2022-10-05T11:11:28.905Z,43.67
2022-10-05T11:14:20.664Z,43.26
2022-10-05T11:17:23.995Z,42.99
2022-10-05T11:20:25.095Z,42.18
2022-10-05T11:23:03.431Z,41.68
2022-10-05T11:25:55.107Z,42.14
2022-10-05T11:29:06.202Z,42.03
2022-10-05T11:32:00.770Z,41.76
2022-10-05T11:34:48.601Z,41.86
2022-10-05T11:37:48.562Z,41.85
2022-10-05T11:40:51.749Z,41.60
2022-10-05T11:44:00.295Z,41.64
2022-10-05T11:46:41.741Z,41.73
2022-10-05T11:49:22.896Z,41.80
2022-10-05T11:52:06.240Z,41.76
2022-10-05T11:55:11.068Z,41.65
2022-10-05T11:57:48.605Z,41.81
2022-10-05T12:00:20.359Z,41.68
2022-10-05T12:03:15.061Z,41.32
2022-10-05T12:05:56.885Z,41.42
2022-10-05T12:08:34.681Z,41.37
2022-10-05T12:11:26.428Z,41.96
2022-10-05T12:14:01.835Z,41.66
2022-10-05T12:16:36.003Z,40.92
2022-10-05T12:19:13.578Z,41.10
2022-10-05T12:21:50.062Z,41.07
2022-10-05T12:24:27.044Z,40.86
2022-10-05T12:27:01.594Z,41.26
2022-10-05T12:29:38.568Z,41.37
2022-10-05T12:32:16.709Z,41.28
2022-10-05T12:34:52.885Z,41.02
2022-10-05T12:37:42.470Z,41.24
2022-10-05T12:40:28.117Z,41.37
2022-10-05T12:43:09.471Z,41.26
2022-10-05T12:45:53.295Z,41.44
2022-10-05T12:48:44.804Z,41.43
2022-10-05T12:51:19.888Z,41.50
2022-10-05T12:53:56.690Z,41.42
2022-10-05T12:56:36.777Z,41.11
2022-10-05T12:59:18.812Z,40.83
2022-10-05T13:01:57.618Z,40.68
2022-10-05T13:04:38.347Z,40.67
2022-10-05T13:07:26.943Z,40.66
2022-10-05T13:10:03.069Z,40.50
2022-10-05T13:12:43.412Z,40.68
2022-10-05T13:15:24.120Z,40.54
2022-10-05T13:18:04.275Z,40.67
2022-10-05T13:20:41.614Z,40.25
2022-10-05T13:23:16.993Z,40.12
2022-10-05T13:25:54.586Z,40.08
2022-10-05T13:28:30.140Z,39.74
2022-10-05T13:31:06.551Z,39.61
2022-10-05T13:34:01.513Z,39.38
2022-10-05T13:36:42.035Z,39.13
2022-10-05T13:39:26.944Z,39.02
2022-10-05T13:42:05.255Z,38.36
2022-10-05T13:44:42.874Z,37.77
2022-10-05T13:47:20.616Z,37.43
2022-10-05T13:49:54.969Z,35.29
2022-10-05T13:52:33.916Z,35.71
2022-10-05T13:55:14.434Z,36.25
2022-10-05T13:57:55.095Z,36.08
2022-10-05T14:00:27.103Z,35.51
2022-10-05T14:03:00.269Z,34.86
2022-10-05T14:05:31.067Z,35.49
2022-10-05T14:08:17.270Z,34.92
2022-10-05T14:10:47.745Z,33.80
2022-10-05T14:13:26.432Z,33.87
2022-10-05T14:16:20.975Z,34.84
2022-10-05T14:18:56.547Z,34.87
2022-10-05T14:21:28.826Z,34.88
2022-10-05T14:27:22.044Z,32.81
2022-10-05T14:30:00.090Z,33.71
2022-10-05T14:32:30.737Z,33.84
2022-10-05T14:35:14.601Z,34.00
2022-10-05T14:37:55.533Z,33.10
2022-10-05T14:40:36.108Z,33.49
2022-10-05T14:43:20.120Z,33.82
2022-10-05T14:45:57.426Z,33.12
2022-10-05T14:48:28.829Z,33.09
2022-10-05T14:51:02.885Z,33.31
2022-10-05T14:53:39.907Z,33.69
2022-10-05T14:56:34.386Z,34.06
2022-10-05T14:59:22.754Z,34.34
2022-10-05T15:01:58.601Z,34.83
2022-10-05T15:04:49.301Z,34.47
2022-10-05T15:07:24.523Z,34.32
2022-10-05T15:10:19.146Z,34.61
2022-10-05T15:12:48.667Z,34.62
2022-10-05T15:15:27.866Z,34.88
2022-10-05T15:18:01.369Z,35.03
2022-10-05T15:20:42.759Z,35.19
2022-10-05T15:23:24.436Z,35.27
2022-10-05T15:26:03.981Z,35.53
2022-10-05T15:28:38.277Z,35.53
2022-10-05T15:31:30.041Z,35.77
2022-10-05T15:34:06.911Z,36.11
2022-10-05T15:36:43.177Z,36.24
2022-10-05T15:39:26.911Z,36.53
2022-10-05T15:42:01.221Z,36.47
2022-10-05T15:45:05.041Z,36.47
2022-10-05T15:47:47.009Z,36.45
2022-10-05T15:50:22.830Z,37.05
2022-10-05T15:52:56.606Z,37.37
2022-10-05T15:55:51.067Z,37.52
2022-10-05T15:58:42.738Z,37.70
2022-10-05T16:01:17.327Z,37.79
2022-10-05T16:03:51.004Z,37.87
2022-10-05T16:07:09.223Z,37.92
2022-10-05T16:09:49.332Z,38.33
2022-10-05T16:12:35.425Z,38.39
2022-10-05T16:15:28.462Z,38.87
2022-10-05T16:18:36.722Z,38.53
2022-10-05T16:21:21.120Z,38.81
2022-10-05T16:24:10.129Z,39.02
2022-10-05T16:26:56.553Z,39.16
2022-10-05T16:29:39.565Z,39.39
2022-10-05T16:32:14.084Z,39.79
2022-10-05T16:34:57.514Z,39.93
2022-10-05T16:37:37.753Z,40.07
2022-10-05T16:40:18.418Z,40.35
2022-10-05T16:42:59.095Z,40.22
2022-10-05T16:45:51.042Z,40.32
2022-10-05T16:48:26.928Z,40.39
2022-10-05T16:51:16.910Z,40.63
2022-10-05T16:53:58.806Z,40.95
2022-10-05T16:56:37.582Z,40.73
2022-10-05T16:59:25.791Z,40.99
2022-10-05T17:02:02.237Z,41.38
2022-10-05T17:04:45.107Z,41.44
2022-10-05T17:07:34.473Z,41.57
2022-10-05T17:10:36.630Z,41.67
2022-10-05T17:13:19.643Z,41.93
2022-10-05T17:16:03.575Z,41.85
2022-10-05T17:19:10.790Z,42.19
2022-10-05T17:21:45.713Z,42.21
2022-10-05T17:24:24.751Z,42.25
2022-10-05T17:27:17.233Z,42.33
2022-10-05T17:29:51.385Z,42.27
2022-10-05T17:32:35.602Z,42.55
2022-10-05T17:35:21.721Z,42.69
2022-10-05T17:38:19.554Z,42.76
2022-10-05T17:41:16.658Z,43.03
2022-10-05T17:44:18.714Z,43.03
2022-10-05T17:46:49.671Z,43.33
2022-10-05T17:49:27.430Z,43.29
2022-10-05T17:52:40.870Z,43.38
2022-10-05T17:55:29.611Z,43.44
2022-10-05T17:58:00.825Z,43.64
2022-10-05T18:00:55.860Z,43.49
2022-10-05T18:03:38.255Z,43.72
2022-10-05T18:06:31.940Z,44.00
2022-10-05T18:09:32.613Z,44.17
2022-10-05T18:12:41.207Z,44.20
2022-10-05T18:15:48.048Z,44.37
2022-10-05T18:18:54.146Z,44.46
2022-10-05T18:21:37.898Z,44.62
2022-10-05T18:24:44.871Z,44.94
2022-10-05T18:27:33.646Z,45.05
2022-10-05T18:30:18.912Z,45.05
2022-10-05T18:33:25.212Z,45.21
2022-10-05T18:36:04.829Z,45.14
2022-10-05T18:38:52.458Z,45.20
2022-10-05T18:41:31.619Z,45.20
2022-10-05T18:44:19.041Z,45.30
2022-10-05T18:46:56.395Z,45.28
2022-10-05T18:49:38.708Z,45.47
2022-10-05T18:52:17.173Z,45.51
2022-10-05T18:54:54.223Z,45.46
2022-10-05T18:57:58.874Z,45.51
2022-10-05T19:00:42.783Z,45.45
2022-10-05T19:03:23.635Z,45.57
2022-10-05T19:06:02.889Z,45.68
2022-10-05T19:08:42.044Z,45.74
2022-10-05T19:11:19.089Z,45.72
2022-10-05T19:13:57.294Z,45.77
2022-10-05T19:16:40.997Z,45.77
2022-10-05T19:19:43.496Z,46.02
2022-10-05T19:22:29.418Z,45.92
2022-10-05T19:25:30.235Z,45.91
2022-10-05T19:28:19.054Z,45.92
2022-10-05T19:31:10.822Z,46.08
2022-10-05T19:34:02.710Z,45.99
2022-10-05T19:36:50.196Z,46.14
2022-10-05T19:39:31.986Z,46.18
2022-10-05T19:42:25.225Z,46.32
2022-10-05T19:45:19.375Z,46.56
2022-10-05T19:48:25.306Z,46.79
2022-10-05T19:51:11.567Z,47.16
2022-10-05T19:53:50.927Z,47.11
2022-10-05T19:56:31.607Z,47.08
2022-10-05T19:59:25.033Z,47.02
2022-10-05T20:02:10.873Z,47.21
2022-10-05T20:04:48.922Z,47.07
2022-10-05T20:07:26.459Z,47.35
2022-10-05T20:10:29.729Z,47.45
2022-10-05T20:13:09.472Z,47.43
2022-10-05T20:16:37.142Z,47.38
2022-10-05T20:22:47.922Z,47.44
2022-10-05T20:25:43.435Z,47.55
2022-10-05T20:28:37.187Z,47.76
2022-10-05T20:31:14.576Z,47.67
2022-10-05T20:33:48.711Z,47.79
2022-10-05T20:36:21.218Z,47.77
2022-10-05T20:38:57.796Z,47.74
2022-10-05T20:41:30.618Z,47.89
2022-10-05T20:44:04.413Z,47.85
2022-10-05T20:46:36.837Z,47.82
2022-10-05T20:49:11.369Z,47.93
2022-10-05T20:51:43.749Z,48.08
2022-10-05T20:54:19.220Z,48.13
2022-10-05T20:56:53.240Z,48.14
2022-10-05T20:59:27.431Z,48.07
2022-10-05T21:02:01.773Z,48.18
2022-10-05T21:04:41.289Z,48.08
2022-10-05T21:07:21.186Z,48.19
2022-10-05T21:09:56.017Z,48.20
2022-10-05T21:12:28.419Z,48.29
2022-10-05T21:15:01.726Z,48.24
2022-10-05T21:17:35.302Z,48.26
2022-10-05T21:20:11.789Z,48.45
2022-10-05T21:22:44.150Z,48.47
2022-10-05T21:25:16.627Z,48.32
2022-10-05T21:27:50.583Z,48.52
2022-10-05T21:30:23.045Z,48.40
2022-10-05T21:32:55.492Z,48.48
2022-10-05T21:35:27.980Z,48.51
2022-10-05T21:38:00.298Z,48.60
2022-10-05T21:40:33.166Z,48.52
2022-10-05T21:43:05.483Z,48.59
2022-10-05T21:45:38.525Z,48.52
2022-10-05T21:48:11.463Z,48.59
2022-10-05T21:50:44.598Z,48.57
2022-10-05T21:53:22.614Z,48.62
2022-10-05T21:55:57.687Z,48.68
2022-10-05T21:58:32.446Z,48.71
2022-10-05T22:01:05.087Z,48.66
2022-10-05T22:03:38.323Z,48.73
2022-10-05T22:06:11.399Z,48.79
2022-10-05T22:08:43.796Z,48.75
2022-10-05T22:11:18.662Z,48.83
2022-10-05T22:13:53.290Z,48.85
2022-10-05T22:16:27.182Z,48.83
2022-10-05T22:18:59.848Z,48.89
2022-10-05T22:21:38.135Z,48.94
2022-10-05T22:24:11.535Z,49.10
2022-10-05T22:26:46.768Z,49.00
2022-10-05T22:29:19.973Z,49.02
2022-10-05T22:31:56.350Z,48.97
2022-10-05T22:34:31.462Z,49.18
2022-10-05T22:37:04.661Z,49.13
2022-10-05T22:39:36.988Z,49.21
2022-10-05T22:42:10.273Z,49.22
2022-10-05T22:44:42.703Z,49.53
2022-10-05T22:47:15.227Z,49.43
2022-10-05T22:49:51.191Z,49.56
2022-10-05T22:52:23.768Z,49.72
2022-10-05T22:54:56.597Z,49.74
2022-10-05T22:57:29.436Z,49.89
2022-10-05T23:00:01.848Z,49.95
2022-10-05T23:02:36.948Z,49.95
2022-10-05T23:05:10.533Z,50.05
2022-10-05T23:07:45.008Z,50.15
2022-10-05T23:10:22.643Z,50.25
2022-10-05T23:13:03.879Z,50.35
2022-10-05T23:15:37.963Z,50.34
2022-10-05T23:18:10.818Z,50.39
2022-10-05T23:20:43.661Z,50.46
2022-10-05T23:23:16.042Z,50.62
2022-10-05T23:25:51.693Z,50.68
2022-10-05T23:28:24.921Z,50.94
2022-10-05T23:31:02.374Z,51.01
2022-10-05T23:33:35.313Z,50.99
2022-10-05T23:36:11.404Z,51.10
2022-10-05T23:38:43.897Z,51.29
2022-10-05T23:41:17.344Z,51.18
2022-10-05T23:43:50.077Z,51.29
2022-10-05T23:46:22.741Z,51.38
2022-10-05T23:48:55.186Z,51.52
2022-10-05T23:51:27.825Z,51.62
2022-10-05T23:54:00.300Z,51.73
2022-10-05T23:56:32.991Z,51.84
2022-10-05T23:59:05.597Z,52.06
